sensor_id;sensor_type;location;lat;lon;timestamp;temperature;humidity
15262;DHT22;7733;51.554;13.590;2022-09-28T00:01:08;8.30;99.90
15262;DHT22;7733;51.554;13.590;2022-09-28T00:03:38;8.20;99.90
15262;DHT22;7733;51.554;13.590;2022-09-28T00:06:06;8.20;99.90
15262;DHT22;7733;51.554;13.590;2022-09-28T00:08:35;8.20;99.90
15262;DHT22;7733;51.554;13.590;2022-09-28T00:11:01;8.20;99.90
15262;DHT22;7733;51.554;13.590;2022-09-28T00:13:29;8.30;99.90
15262;DHT22;7733;51.554;13.590;2022-09-28T00:16:02;8.20;99.90
15262;DHT22;7733;51.554;13.590;2022-09-28T00:18:30;8.30;99.90
15262;DHT22;7733;51.554;13.590;2022-09-28T00:23:27;8.20;99.90
15262;DHT22;7733;51.554;13.590;2022-09-28T00:25:52;8.10;99.90
15262;DHT22;7733;51.554;13.590;2022-09-28T00:28:18;8.00;99.90
15262;DHT22;7733;51.554;13.590;2022-09-28T00:30:43;8.00;99.90
15262;DHT22;7733;51.554;13.590;2022-09-28T00:33:09;8.00;99.90
15262;DHT22;7733;51.554;13.590;2022-09-28T00:35:35;8.00;99.90
15262;DHT22;7733;51.554;13.590;2022-09-28T00:38:00;8.10;99.90
15262;DHT22;7733;51.554;13.590;2022-09-28T00:40:28;8.10;99.90
15262;DHT22;7733;51.554;13.590;2022-09-28T00:42:53;8.10;99.90
15262;DHT22;7733;51.554;13.590;2022-09-28T00:45:21;8.00;99.90
15262;DHT22;7733;51.554;13.590;2022-09-28T00:47:55;8.10;99.90
15262;DHT22;7733;51.554;13.590;2022-09-28T00:50:26;8.00;99.90
15262;DHT22;7733;51.554;13.590;2022-09-28T00:53:05;8.10;99.90
15262;DHT22;7733;51.554;13.590;2022-09-28T00:55:53;8.10;99.90
15262;DHT22;7733;51.554;13.590;2022-09-28T00:58:28;8.10;99.90
15262;DHT22;7733;51.554;13.590;2022-09-28T01:00:56;8.10;99.90
15262;DHT22;7733;51.554;13.590;2022-09-28T01:03:24;8.10;99.90
15262;DHT22;7733;51.554;13.590;2022-09-28T01:05:52;8.10;99.90
15262;DHT22;7733;51.554;13.590;2022-09-28T01:08:21;8.20;99.90
15262;DHT22;7733;51.554;13.590;2022-09-28T01:10:51;8.20;99.90
15262;DHT22;7733;51.554;13.590;2022-09-28T01:13:18;8.20;99.90
15262;DHT22;7733;51.554;13.590;2022-09-28T01:16:06;8.30;99.90
15262;DHT22;7733;51.554;13.590;2022-09-28T01:22:46;8.30;99.90
15262;DHT22;7733;51.554;13.590;2022-09-28T01:25:35;8.30;99.90
15262;DHT22;7733;51.554;13.590;2022-09-28T01:28:13;8.40;99.90
15262;DHT22;7733;51.554;13.590;2022-09-28T01:33:55;8.40;99.90
15262;DHT22;7733;51.554;13.590;2022-09-28T01:36:26;8.30;99.90
15262;DHT22;7733;51.554;13.590;2022-09-28T01:39:03;8.30;99.90
15262;DHT22;7733;51.554;13.590;2022-09-28T01:41:34;8.30;99.90
15262;DHT22;7733;51.554;13.590;2022-09-28T01:44:05;8.20;99.90
15262;DHT22;7733;51.554;13.590;2022-09-28T01:46:39;8.30;99.90
15262;DHT22;7733;51.554;13.590;2022-09-28T01:49:18;8.30;99.90
15262;DHT22;7733;51.554;13.590;2022-09-28T01:51:54;8.30;99.90
15262;DHT22;7733;51.554;13.590;2022-09-28T01:54:39;8.20;99.90
15262;DHT22;7733;51.554;13.590;2022-09-28T01:57:18;8.10;99.90
15262;DHT22;7733;51.554;13.590;2022-09-28T01:59:58;8.10;99.90
15262;DHT22;7733;51.554;13.590;2022-09-28T02:02:34;8.10;99.90
15262;DHT22;7733;51.554;13.590;2022-09-28T02:05:10;8.00;99.90
15262;DHT22;7733;51.554;13.590;2022-09-28T02:08:02;8.00;99.90
15262;DHT22;7733;51.554;13.590;2022-09-28T02:11:14;8.00;99.90
15262;DHT22;7733;51.554;13.590;2022-09-28T02:13:50;8.00;99.90
15262;DHT22;7733;51.554;13.590;2022-09-28T02:16:38;8.10;99.90
15262;DHT22;7733;51.554;13.590;2022-09-28T02:19:09;8.00;99.90
15262;DHT22;7733;51.554;13.590;2022-09-28T02:24:45;8.10;99.90
15262;DHT22;7733;51.554;13.590;2022-09-28T02:30:35;8.00;99.90
15262;DHT22;7733;51.554;13.590;2022-09-28T02:33:11;8.00;99.90
15262;DHT22;7733;51.554;13.590;2022-09-28T02:35:42;8.00;99.90
15262;DHT22;7733;51.554;13.590;2022-09-28T02:38:12;8.00;99.90
15262;DHT22;7733;51.554;13.590;2022-09-28T02:40:39;7.90;99.90
15262;DHT22;7733;51.554;13.590;2022-09-28T02:46:22;7.90;99.90
15262;DHT22;7733;51.554;13.590;2022-09-28T02:52:14;7.80;99.90
15262;DHT22;7733;51.554;13.590;2022-09-28T02:55:11;7.70;99.90
15262;DHT22;7733;51.554;13.590;2022-09-28T03:00:43;7.50;99.90
15262;DHT22;7733;51.554;13.590;2022-09-28T03:03:21;7.50;99.90
15262;DHT22;7733;51.554;13.590;2022-09-28T03:09:20;7.40;99.90
15262;DHT22;7733;51.554;13.590;2022-09-28T03:11:55;7.30;99.90
15262;DHT22;7733;51.554;13.590;2022-09-28T03:14:25;7.40;99.90
15262;DHT22;7733;51.554;13.590;2022-09-28T03:16:50;7.40;99.90
15262;DHT22;7733;51.554;13.590;2022-09-28T03:19:19;7.30;99.90
15262;DHT22;7733;51.554;13.590;2022-09-28T03:21:49;7.40;99.90
15262;DHT22;7733;51.554;13.590;2022-09-28T03:24:14;7.60;99.90
15262;DHT22;7733;51.554;13.590;2022-09-28T03:26:40;7.70;99.90
15262;DHT22;7733;51.554;13.590;2022-09-28T03:29:06;7.60;99.90
15262;DHT22;7733;51.554;13.590;2022-09-28T03:31:31;7.50;99.90
15262;DHT22;7733;51.554;13.590;2022-09-28T03:33:57;7.50;99.90
15262;DHT22;7733;51.554;13.590;2022-09-28T03:36:23;7.50;99.90
15262;DHT22;7733;51.554;13.590;2022-09-28T03:38:51;7.50;99.90
15262;DHT22;7733;51.554;13.590;2022-09-28T03:41:19;7.50;99.90
15262;DHT22;7733;51.554;13.590;2022-09-28T03:43:45;7.50;99.90
15262;DHT22;7733;51.554;13.590;2022-09-28T03:46:11;7.40;99.90
15262;DHT22;7733;51.554;13.590;2022-09-28T03:48:38;7.40;99.90
15262;DHT22;7733;51.554;13.590;2022-09-28T03:51:06;7.40;99.90
15262;DHT22;7733;51.554;13.590;2022-09-28T03:53:34;7.30;99.90
15262;DHT22;7733;51.554;13.590;2022-09-28T03:56:02;7.30;99.90
15262;DHT22;7733;51.554;13.590;2022-09-28T03:58:29;7.30;99.90
15262;DHT22;7733;51.554;13.590;2022-09-28T04:01:03;7.20;99.90
15262;DHT22;7733;51.554;13.590;2022-09-28T04:03:31;7.20;99.90
15262;DHT22;7733;51.554;13.590;2022-09-28T04:05:56;7.10;99.90
15262;DHT22;7733;51.554;13.590;2022-09-28T04:08:23;7.20;99.90
15262;DHT22;7733;51.554;13.590;2022-09-28T04:10:48;7.20;99.90
15262;DHT22;7733;51.554;13.590;2022-09-28T04:13:14;7.20;99.90
15262;DHT22;7733;51.554;13.590;2022-09-28T04:15:40;6.80;99.90
15262;DHT22;7733;51.554;13.590;2022-09-28T04:18:10;6.80;99.90
15262;DHT22;7733;51.554;13.590;2022-09-28T04:20:36;7.00;99.90
15262;DHT22;7733;51.554;13.590;2022-09-28T04:23:05;7.10;99.90
15262;DHT22;7733;51.554;13.590;2022-09-28T04:25:30;7.10;99.90
15262;DHT22;7733;51.554;13.590;2022-09-28T04:27:56;7.10;99.90
15262;DHT22;7733;51.554;13.590;2022-09-28T04:30:40;7.20;99.90
15262;DHT22;7733;51.554;13.590;2022-09-28T04:33:06;7.20;99.90
15262;DHT22;7733;51.554;13.590;2022-09-28T04:35:31;7.10;99.90
15262;DHT22;7733;51.554;13.590;2022-09-28T04:37:57;7.20;99.90
15262;DHT22;7733;51.554;13.590;2022-09-28T04:40:23;7.30;99.90
15262;DHT22;7733;51.554;13.590;2022-09-28T04:42:53;7.40;99.90
15262;DHT22;7733;51.554;13.590;2022-09-28T04:45:19;7.40;99.90
15262;DHT22;7733;51.554;13.590;2022-09-28T04:47:45;7.30;99.90
15262;DHT22;7733;51.554;13.590;2022-09-28T04:50:10;7.30;99.90
15262;DHT22;7733;51.554;13.590;2022-09-28T04:52:36;7.40;99.90
15262;DHT22;7733;51.554;13.590;2022-09-28T04:55:03;7.60;99.90
15262;DHT22;7733;51.554;13.590;2022-09-28T04:57:30;7.70;99.90
15262;DHT22;7733;51.554;13.590;2022-09-28T04:59:58;7.70;99.90
15262;DHT22;7733;51.554;13.590;2022-09-28T05:02:24;7.70;99.90
15262;DHT22;7733;51.554;13.590;2022-09-28T05:04:49;7.70;99.90
15262;DHT22;7733;51.554;13.590;2022-09-28T05:07:15;7.60;99.90
15262;DHT22;7733;51.554;13.590;2022-09-28T05:09:41;7.60;99.90
15262;DHT22;7733;51.554;13.590;2022-09-28T05:12:07;7.60;99.90
15262;DHT22;7733;51.554;13.590;2022-09-28T05:14:33;7.60;99.90
15262;DHT22;7733;51.554;13.590;2022-09-28T05:16:59;7.60;99.90
15262;DHT22;7733;51.554;13.590;2022-09-28T05:19:25;7.60;99.90
15262;DHT22;7733;51.554;13.590;2022-09-28T05:21:50;7.60;99.90
15262;DHT22;7733;51.554;13.590;2022-09-28T05:24:16;7.50;99.90
15262;DHT22;7733;51.554;13.590;2022-09-28T05:26:42;7.50;99.90
15262;DHT22;7733;51.554;13.590;2022-09-28T05:29:07;7.60;99.90
15262;DHT22;7733;51.554;13.590;2022-09-28T05:31:33;7.50;99.90
15262;DHT22;7733;51.554;13.590;2022-09-28T05:33:58;7.50;99.90
15262;DHT22;7733;51.554;13.590;2022-09-28T05:36:24;7.40;99.90
15262;DHT22;7733;51.554;13.590;2022-09-28T05:38:54;7.50;99.90
15262;DHT22;7733;51.554;13.590;2022-09-28T05:41:20;7.50;99.90
15262;DHT22;7733;51.554;13.590;2022-09-28T05:43:46;7.50;99.90
15262;DHT22;7733;51.554;13.590;2022-09-28T05:46:12;7.50;99.90
15262;DHT22;7733;51.554;13.590;2022-09-28T05:48:37;7.50;99.90
15262;DHT22;7733;51.554;13.590;2022-09-28T05:51:03;7.50;99.90
15262;DHT22;7733;51.554;13.590;2022-09-28T05:53:28;7.50;99.90
15262;DHT22;7733;51.554;13.590;2022-09-28T05:55:58;7.50;99.90
15262;DHT22;7733;51.554;13.590;2022-09-28T05:58:24;7.50;99.90
15262;DHT22;7733;51.554;13.590;2022-09-28T06:00:56;7.60;99.90
15262;DHT22;7733;51.554;13.590;2022-09-28T06:03:22;7.60;99.90
15262;DHT22;7733;51.554;13.590;2022-09-28T06:05:48;7.60;99.90
15262;DHT22;7733;51.554;13.590;2022-09-28T06:08:14;7.60;99.90
15262;DHT22;7733;51.554;13.590;2022-09-28T06:10:40;7.70;99.90
15262;DHT22;7733;51.554;13.590;2022-09-28T06:13:06;7.70;99.90
15262;DHT22;7733;51.554;13.590;2022-09-28T06:15:33;7.70;99.90
15262;DHT22;7733;51.554;13.590;2022-09-28T06:18:02;7.80;99.90
15262;DHT22;7733;51.554;13.590;2022-09-28T06:20:31;7.80;99.90
15262;DHT22;7733;51.554;13.590;2022-09-28T06:22:59;7.80;99.90
15262;DHT22;7733;51.554;13.590;2022-09-28T06:25:25;7.80;99.90
15262;DHT22;7733;51.554;13.590;2022-09-28T06:27:56;7.70;99.90
15262;DHT22;7733;51.554;13.590;2022-09-28T06:30:23;7.90;99.90
15262;DHT22;7733;51.554;13.590;2022-09-28T06:32:52;8.00;99.90
15262;DHT22;7733;51.554;13.590;2022-09-28T06:35:20;8.00;99.90
15262;DHT22;7733;51.554;13.590;2022-09-28T06:37:46;8.10;99.90
15262;DHT22;7733;51.554;13.590;2022-09-28T06:40:12;8.20;99.90
15262;DHT22;7733;51.554;13.590;2022-09-28T06:42:38;8.30;99.90
15262;DHT22;7733;51.554;13.590;2022-09-28T06:45:04;8.20;99.90
15262;DHT22;7733;51.554;13.590;2022-09-28T06:47:31;8.20;99.90
15262;DHT22;7733;51.554;13.590;2022-09-28T06:49:58;8.30;99.90
15262;DHT22;7733;51.554;13.590;2022-09-28T06:52:24;8.40;99.90
15262;DHT22;7733;51.554;13.590;2022-09-28T06:54:50;8.40;99.90
15262;DHT22;7733;51.554;13.590;2022-09-28T06:57:16;8.40;99.90
15262;DHT22;7733;51.554;13.590;2022-09-28T06:59:42;8.40;99.90
15262;DHT22;7733;51.554;13.590;2022-09-28T07:02:11;8.40;99.90
15262;DHT22;7733;51.554;13.590;2022-09-28T07:04:41;8.50;99.90
15262;DHT22;7733;51.554;13.590;2022-09-28T07:07:10;8.60;99.90
15262;DHT22;7733;51.554;13.590;2022-09-28T07:09:36;8.60;99.90
15262;DHT22;7733;51.554;13.590;2022-09-28T07:12:02;8.70;99.90
15262;DHT22;7733;51.554;13.590;2022-09-28T07:14:34;8.70;99.90
15262;DHT22;7733;51.554;13.590;2022-09-28T07:17:00;8.70;99.90
15262;DHT22;7733;51.554;13.590;2022-09-28T07:19:26;8.70;99.90
15262;DHT22;7733;51.554;13.590;2022-09-28T07:21:52;8.70;99.90
15262;DHT22;7733;51.554;13.590;2022-09-28T07:24:18;8.60;99.90
15262;DHT22;7733;51.554;13.590;2022-09-28T07:26:44;8.80;99.90
15262;DHT22;7733;51.554;13.590;2022-09-28T07:29:10;8.90;99.90
15262;DHT22;7733;51.554;13.590;2022-09-28T07:31:37;8.90;99.90
15262;DHT22;7733;51.554;13.590;2022-09-28T07:34:03;9.00;99.90
15262;DHT22;7733;51.554;13.590;2022-09-28T07:36:29;9.10;99.90
15262;DHT22;7733;51.554;13.590;2022-09-28T07:38:55;9.10;99.90
15262;DHT22;7733;51.554;13.590;2022-09-28T07:41:21;9.20;99.90
15262;DHT22;7733;51.554;13.590;2022-09-28T07:43:59;9.20;99.90
15262;DHT22;7733;51.554;13.590;2022-09-28T07:46:35;9.50;99.90
15262;DHT22;7733;51.554;13.590;2022-09-28T07:49:01;9.40;99.90
15262;DHT22;7733;51.554;13.590;2022-09-28T07:51:31;9.40;99.90
15262;DHT22;7733;51.554;13.590;2022-09-28T07:53:58;9.40;99.90
15262;DHT22;7733;51.554;13.590;2022-09-28T07:56:23;9.40;99.90
15262;DHT22;7733;51.554;13.590;2022-09-28T07:58:50;9.40;99.90
15262;DHT22;7733;51.554;13.590;2022-09-28T08:01:16;9.50;99.90
15262;DHT22;7733;51.554;13.590;2022-09-28T08:03:43;9.40;99.90
15262;DHT22;7733;51.554;13.590;2022-09-28T08:06:13;9.40;99.90
15262;DHT22;7733;51.554;13.590;2022-09-28T08:08:42;9.50;99.90
15262;DHT22;7733;51.554;13.590;2022-09-28T08:11:10;9.60;99.90
15262;DHT22;7733;51.554;13.590;2022-09-28T08:13:37;9.60;99.90
15262;DHT22;7733;51.554;13.590;2022-09-28T08:16:03;9.70;99.90
15262;DHT22;7733;51.554;13.590;2022-09-28T08:18:33;9.70;99.90
15262;DHT22;7733;51.554;13.590;2022-09-28T08:21:01;9.80;99.90
15262;DHT22;7733;51.554;13.590;2022-09-28T08:23:46;9.80;99.90
15262;DHT22;7733;51.554;13.590;2022-09-28T08:26:12;9.80;99.90
15262;DHT22;7733;51.554;13.590;2022-09-28T08:28:37;9.80;99.90
15262;DHT22;7733;51.554;13.590;2022-09-28T08:31:03;9.90;99.90
15262;DHT22;7733;51.554;13.590;2022-09-28T08:33:32;9.90;99.90
15262;DHT22;7733;51.554;13.590;2022-09-28T08:36:00;9.90;99.90
15262;DHT22;7733;51.554;13.590;2022-09-28T08:38:28;10.00;99.90
15262;DHT22;7733;51.554;13.590;2022-09-28T08:41:04;10.00;99.90
15262;DHT22;7733;51.554;13.590;2022-09-28T08:44:04;9.90;99.90
15262;DHT22;7733;51.554;13.590;2022-09-28T08:46:45;9.90;99.90
15262;DHT22;7733;51.554;13.590;2022-09-28T08:49:27;10.00;99.90
15262;DHT22;7733;51.554;13.590;2022-09-28T08:52:17;10.10;99.90
15262;DHT22;7733;51.554;13.590;2022-09-28T08:54:52;10.00;99.90
15262;DHT22;7733;51.554;13.590;2022-09-28T08:57:26;10.00;99.90
15262;DHT22;7733;51.554;13.590;2022-09-28T08:59:58;10.00;99.90
15262;DHT22;7733;51.554;13.590;2022-09-28T09:02:29;10.10;99.90
15262;DHT22;7733;51.554;13.590;2022-09-28T09:04:58;10.20;99.90
15262;DHT22;7733;51.554;13.590;2022-09-28T09:10:54;10.20;99.90
15262;DHT22;7733;51.554;13.590;2022-09-28T09:16:22;10.40;99.90
15262;DHT22;7733;51.554;13.590;2022-09-28T09:19:15;10.50;99.90
15262;DHT22;7733;51.554;13.590;2022-09-28T09:22:04;10.50;99.90
15262;DHT22;7733;51.554;13.590;2022-09-28T09:25:32;10.40;99.90
15262;DHT22;7733;51.554;13.590;2022-09-28T09:31:27;10.40;99.90
15262;DHT22;7733;51.554;13.590;2022-09-28T09:37:53;10.50;99.90
15262;DHT22;7733;51.554;13.590;2022-09-28T09:44:22;10.40;99.90
15262;DHT22;7733;51.554;13.590;2022-09-28T09:47:09;10.50;99.90
15262;DHT22;7733;51.554;13.590;2022-09-28T09:49:54;10.50;99.90
15262;DHT22;7733;51.554;13.590;2022-09-28T09:52:52;10.50;99.90
15262;DHT22;7733;51.554;13.590;2022-09-28T09:55:37;10.40;99.90
15262;DHT22;7733;51.554;13.590;2022-09-28T10:01:06;10.50;99.90
15262;DHT22;7733;51.554;13.590;2022-09-28T10:03:40;10.50;99.90
15262;DHT22;7733;51.554;13.590;2022-09-28T10:06:17;10.50;99.90
15262;DHT22;7733;51.554;13.590;2022-09-28T10:09:35;10.40;99.90
15262;DHT22;7733;51.554;13.590;2022-09-28T10:11:47;10.50;99.90
15262;DHT22;7733;51.554;13.590;2022-09-28T10:14:20;10.60;99.90
15262;DHT22;7733;51.554;13.590;2022-09-28T10:16:50;10.50;99.90
15262;DHT22;7733;51.554;13.590;2022-09-28T10:19:20;10.60;99.90
15262;DHT22;7733;51.554;13.590;2022-09-28T10:21:53;10.60;99.90
15262;DHT22;7733;51.554;13.590;2022-09-28T10:24:31;10.60;99.90
15262;DHT22;7733;51.554;13.590;2022-09-28T10:27:07;10.70;99.90
15262;DHT22;7733;51.554;13.590;2022-09-28T10:29:49;10.70;99.90
15262;DHT22;7733;51.554;13.590;2022-09-28T10:32:35;10.80;99.90
15262;DHT22;7733;51.554;13.590;2022-09-28T10:43:07;10.80;99.90
15262;DHT22;7733;51.554;13.590;2022-09-28T10:45:42;10.60;99.90
15262;DHT22;7733;51.554;13.590;2022-09-28T10:48:18;10.70;99.90
15262;DHT22;7733;51.554;13.590;2022-09-28T10:51:06;10.80;99.90
15262;DHT22;7733;51.554;13.590;2022-09-28T10:53:33;10.80;99.90
15262;DHT22;7733;51.554;13.590;2022-09-28T10:56:03;10.80;99.90
15262;DHT22;7733;51.554;13.590;2022-09-28T10:58:42;10.80;99.90
15262;DHT22;7733;51.554;13.590;2022-09-28T11:01:12;10.50;99.90
15262;DHT22;7733;51.554;13.590;2022-09-28T11:03:58;10.40;99.90
15262;DHT22;7733;51.554;13.590;2022-09-28T11:06:29;10.30;99.90
15262;DHT22;7733;51.554;13.590;2022-09-28T11:09:02;10.50;99.90
15262;DHT22;7733;51.554;13.590;2022-09-28T11:11:30;10.50;99.90
15262;DHT22;7733;51.554;13.590;2022-09-28T11:14:20;10.30;99.90
15262;DHT22;7733;51.554;13.590;2022-09-28T11:20:00;10.20;99.90
15262;DHT22;7733;51.554;13.590;2022-09-28T11:22:44;10.20;99.90
15262;DHT22;7733;51.554;13.590;2022-09-28T11:42:03;10.50;99.90
15262;DHT22;7733;51.554;13.590;2022-09-28T11:48:06;10.70;99.90
15262;DHT22;7733;51.554;13.590;2022-09-28T11:50:55;10.90;99.90
15262;DHT22;7733;51.554;13.590;2022-09-28T11:53:46;10.80;99.90
15262;DHT22;7733;51.554;13.590;2022-09-28T11:56:39;11.00;99.90
15262;DHT22;7733;51.554;13.590;2022-09-28T11:59:18;11.00;99.90
15262;DHT22;7733;51.554;13.590;2022-09-28T12:01:59;11.30;99.90
15262;DHT22;7733;51.554;13.590;2022-09-28T12:04:45;11.20;99.90
15262;DHT22;7733;51.554;13.590;2022-09-28T12:07:29;11.20;99.90
15262;DHT22;7733;51.554;13.590;2022-09-28T12:10:09;10.90;99.90
15262;DHT22;7733;51.554;13.590;2022-09-28T12:12:52;11.00;99.90
15262;DHT22;7733;51.554;13.590;2022-09-28T12:15:50;11.10;99.90
15262;DHT22;7733;51.554;13.590;2022-09-28T12:26:47;11.10;99.90
15262;DHT22;7733;51.554;13.590;2022-09-28T12:30:24;11.30;99.90
15262;DHT22;7733;51.554;13.590;2022-09-28T12:33:03;11.40;99.90
15262;DHT22;7733;51.554;13.590;2022-09-28T12:38:19;11.20;99.90
15262;DHT22;7733;51.554;13.590;2022-09-28T12:41:03;11.10;99.90
15262;DHT22;7733;51.554;13.590;2022-09-28T12:44:10;11.10;99.90
15262;DHT22;7733;51.554;13.590;2022-09-28T12:47:20;11.10;99.90
15262;DHT22;7733;51.554;13.590;2022-09-28T12:50:21;11.00;99.90
15262;DHT22;7733;51.554;13.590;2022-09-28T12:56:28;10.70;99.90
15262;DHT22;7733;51.554;13.590;2022-09-28T12:59:08;10.70;99.90
15262;DHT22;7733;51.554;13.590;2022-09-28T13:02:16;10.60;99.90
15262;DHT22;7733;51.554;13.590;2022-09-28T13:08:18;10.50;99.90
15262;DHT22;7733;51.554;13.590;2022-09-28T13:11:07;10.40;99.90
15262;DHT22;7733;51.554;13.590;2022-09-28T13:25:56;10.30;99.90
15262;DHT22;7733;51.554;13.590;2022-09-28T13:28:30;10.40;99.90
15262;DHT22;7733;51.554;13.590;2022-09-28T13:30:57;10.30;99.90
15262;DHT22;7733;51.554;13.590;2022-09-28T13:38:49;10.60;99.90
15262;DHT22;7733;51.554;13.590;2022-09-28T13:41:21;10.40;99.90
15262;DHT22;7733;51.554;13.590;2022-09-28T13:47:05;10.40;99.90
15262;DHT22;7733;51.554;13.590;2022-09-28T13:55:31;10.30;99.90
15262;DHT22;7733;51.554;13.590;2022-09-28T14:01:05;10.40;99.90
15262;DHT22;7733;51.554;13.590;2022-09-28T14:06:48;10.60;99.90
15262;DHT22;7733;51.554;13.590;2022-09-28T14:09:28;10.50;99.90
15262;DHT22;7733;51.554;13.590;2022-09-28T14:14:57;10.30;99.90
15262;DHT22;7733;51.554;13.590;2022-09-28T14:19:53;10.30;99.90
15262;DHT22;7733;51.554;13.590;2022-09-28T14:22:32;10.40;99.90
15262;DHT22;7733;51.554;13.590;2022-09-28T14:25:23;10.40;99.90
15262;DHT22;7733;51.554;13.590;2022-09-28T14:35:53;10.70;99.90
15262;DHT22;7733;51.554;13.590;2022-09-28T14:38:27;10.60;99.90
15262;DHT22;7733;51.554;13.590;2022-09-28T14:41:29;10.70;99.90
15262;DHT22;7733;51.554;13.590;2022-09-28T14:44:11;10.90;99.90
15262;DHT22;7733;51.554;13.590;2022-09-28T14:46:46;10.80;99.90
15262;DHT22;7733;51.554;13.590;2022-09-28T14:57:39;10.50;99.90
15262;DHT22;7733;51.554;13.590;2022-09-28T15:00:19;10.50;99.90
15262;DHT22;7733;51.554;13.590;2022-09-28T15:02:49;10.50;99.90
15262;DHT22;7733;51.554;13.590;2022-09-28T15:05:29;10.50;99.90
15262;DHT22;7733;51.554;13.590;2022-09-28T15:08:02;10.50;99.90
15262;DHT22;7733;51.554;13.590;2022-09-28T15:10:33;10.50;99.90
15262;DHT22;7733;51.554;13.590;2022-09-28T15:13:04;10.60;99.90
15262;DHT22;7733;51.554;13.590;2022-09-28T15:15:48;10.50;99.90
15262;DHT22;7733;51.554;13.590;2022-09-28T15:18:23;10.50;99.90
15262;DHT22;7733;51.554;13.590;2022-09-28T15:20:59;10.50;99.90
15262;DHT22;7733;51.554;13.590;2022-09-28T15:23:36;10.50;99.90
15262;DHT22;7733;51.554;13.590;2022-09-28T15:26:05;10.50;99.90
15262;DHT22;7733;51.554;13.590;2022-09-28T15:28:43;10.50;99.90
15262;DHT22;7733;51.554;13.590;2022-09-28T15:31:19;10.50;99.90
15262;DHT22;7733;51.554;13.590;2022-09-28T15:33:47;10.50;99.90
15262;DHT22;7733;51.554;13.590;2022-09-28T15:36:41;10.50;99.90
15262;DHT22;7733;51.554;13.590;2022-09-28T15:39:34;10.60;99.90
15262;DHT22;7733;51.554;13.590;2022-09-28T15:41:59;10.60;99.90
15262;DHT22;7733;51.554;13.590;2022-09-28T15:44:34;10.70;99.90
15262;DHT22;7733;51.554;13.590;2022-09-28T15:47:16;10.80;99.90
15262;DHT22;7733;51.554;13.590;2022-09-28T15:52:33;11.10;99.90
15262;DHT22;7733;51.554;13.590;2022-09-28T15:55:11;11.10;99.90
15262;DHT22;7733;51.554;13.590;2022-09-28T15:57:43;10.90;99.90
15262;DHT22;7733;51.554;13.590;2022-09-28T16:11:20;10.30;99.90
15262;DHT22;7733;51.554;13.590;2022-09-28T16:13:58;10.30;99.90
15262;DHT22;7733;51.554;13.590;2022-09-28T16:16:31;10.40;99.90
15262;DHT22;7733;51.554;13.590;2022-09-28T16:19:00;10.40;99.90
15262;DHT22;7733;51.554;13.590;2022-09-28T16:26:58;10.30;99.90
15262;DHT22;7733;51.554;13.590;2022-09-28T16:29:36;10.30;99.90
15262;DHT22;7733;51.554;13.590;2022-09-28T16:35:48;10.30;99.90
15262;DHT22;7733;51.554;13.590;2022-09-28T16:38:12;10.20;99.90
15262;DHT22;7733;51.554;13.590;2022-09-28T16:40:50;10.10;99.90
15262;DHT22;7733;51.554;13.590;2022-09-28T16:43:27;10.00;99.90
15262;DHT22;7733;51.554;13.590;2022-09-28T16:45:57;10.00;99.90
15262;DHT22;7733;51.554;13.590;2022-09-28T16:48:27;9.90;99.90
15262;DHT22;7733;51.554;13.590;2022-09-28T16:50:56;9.90;99.90
15262;DHT22;7733;51.554;13.590;2022-09-28T16:53:22;10.00;99.90
15262;DHT22;7733;51.554;13.590;2022-09-28T16:56:07;10.00;99.90
15262;DHT22;7733;51.554;13.590;2022-09-28T16:58:33;9.90;99.90
15262;DHT22;7733;51.554;13.590;2022-09-28T17:01:00;9.70;99.90
15262;DHT22;7733;51.554;13.590;2022-09-28T17:03:27;9.50;99.90
15262;DHT22;7733;51.554;13.590;2022-09-28T17:05:53;9.60;99.90
15262;DHT22;7733;51.554;13.590;2022-09-28T17:08:21;9.50;99.90
15262;DHT22;7733;51.554;13.590;2022-09-28T17:10:56;9.50;99.90
15262;DHT22;7733;51.554;13.590;2022-09-28T17:13:25;9.40;99.90
15262;DHT22;7733;51.554;13.590;2022-09-28T17:15:58;9.30;99.90
15262;DHT22;7733;51.554;13.590;2022-09-28T17:18:26;9.10;99.90
15262;DHT22;7733;51.554;13.590;2022-09-28T17:20:54;9.10;99.90
15262;DHT22;7733;51.554;13.590;2022-09-28T17:23:22;9.10;99.90
15262;DHT22;7733;51.554;13.590;2022-09-28T17:25:48;9.30;99.90
15262;DHT22;7733;51.554;13.590;2022-09-28T17:28:19;9.30;99.90
15262;DHT22;7733;51.554;13.590;2022-09-28T17:30:48;9.30;99.90
15262;DHT22;7733;51.554;13.590;2022-09-28T17:33:14;9.20;99.90
15262;DHT22;7733;51.554;13.590;2022-09-28T17:35:41;9.20;99.90
15262;DHT22;7733;51.554;13.590;2022-09-28T17:38:10;9.10;99.90
15262;DHT22;7733;51.554;13.590;2022-09-28T17:40:37;8.90;99.90
15262;DHT22;7733;51.554;13.590;2022-09-28T17:43:03;8.90;99.90
15262;DHT22;7733;51.554;13.590;2022-09-28T17:45:31;8.70;99.90
15262;DHT22;7733;51.554;13.590;2022-09-28T17:47:58;8.60;99.90
15262;DHT22;7733;51.554;13.590;2022-09-28T17:50:30;8.70;99.90
15262;DHT22;7733;51.554;13.590;2022-09-28T17:52:58;8.60;99.90
15262;DHT22;7733;51.554;13.590;2022-09-28T17:55:28;8.70;99.90
15262;DHT22;7733;51.554;13.590;2022-09-28T17:57:59;8.80;99.90
15262;DHT22;7733;51.554;13.590;2022-09-28T18:00:26;8.90;99.90
15262;DHT22;7733;51.554;13.590;2022-09-28T18:02:56;8.90;99.90
15262;DHT22;7733;51.554;13.590;2022-09-28T18:05:23;8.90;99.90
15262;DHT22;7733;51.554;13.590;2022-09-28T18:07:51;8.80;99.90
15262;DHT22;7733;51.554;13.590;2022-09-28T18:10:19;8.80;99.90
15262;DHT22;7733;51.554;13.590;2022-09-28T18:12:47;8.80;99.90
15262;DHT22;7733;51.554;13.590;2022-09-28T18:15:15;8.90;99.90
15262;DHT22;7733;51.554;13.590;2022-09-28T18:17:42;8.90;99.90
15262;DHT22;7733;51.554;13.590;2022-09-28T18:20:10;9.00;99.90
15262;DHT22;7733;51.554;13.590;2022-09-28T18:22:37;9.10;99.90
15262;DHT22;7733;51.554;13.590;2022-09-28T18:25:04;9.20;99.90
15262;DHT22;7733;51.554;13.590;2022-09-28T18:27:31;9.10;99.90
15262;DHT22;7733;51.554;13.590;2022-09-28T18:29:59;9.20;99.90
15262;DHT22;7733;51.554;13.590;2022-09-28T18:32:26;9.20;99.90
15262;DHT22;7733;51.554;13.590;2022-09-28T18:34:52;9.20;99.90
15262;DHT22;7733;51.554;13.590;2022-09-28T18:37:17;9.20;99.90
15262;DHT22;7733;51.554;13.590;2022-09-28T18:39:43;9.20;99.90
15262;DHT22;7733;51.554;13.590;2022-09-28T18:42:09;9.20;99.90
15262;DHT22;7733;51.554;13.590;2022-09-28T18:44:36;9.20;99.90
15262;DHT22;7733;51.554;13.590;2022-09-28T18:47:02;9.20;99.90
15262;DHT22;7733;51.554;13.590;2022-09-28T18:49:29;9.20;99.90
15262;DHT22;7733;51.554;13.590;2022-09-28T18:51:55;9.30;99.90
15262;DHT22;7733;51.554;13.590;2022-09-28T18:54:22;9.30;99.90
15262;DHT22;7733;51.554;13.590;2022-09-28T18:56:47;9.30;99.90
15262;DHT22;7733;51.554;13.590;2022-09-28T18:59:15;9.20;99.90
15262;DHT22;7733;51.554;13.590;2022-09-28T19:01:41;9.30;99.90
15262;DHT22;7733;51.554;13.590;2022-09-28T19:04:09;9.30;99.90
15262;DHT22;7733;51.554;13.590;2022-09-28T19:06:40;9.30;99.90
15262;DHT22;7733;51.554;13.590;2022-09-28T19:09:07;9.20;99.90